Time,TemperatureF,DewpointF,PressureIn,WindDirection,WindDirectionDegrees,WindSpeedMPH,WindSpeedGustMPH,Humidity,HourlyPrecipIn,Conditions,Clouds,dailyrainin,SolarRadiationWatts/m^2,SoftwareType,DateUTC
2013-05-25 00:01:00,45.1,42.6,29.94,SSW,210,10.0,11.0,91,0.01,,,0.62,0.0,meteohub,2013-05-25 04:01:00,
2013-05-25 00:02:00,45.0,42.3,29.94,NW,326,1.0,11.0,90,0.01,,,0.62,0.0,meteohub,2013-05-25 04:02:00,
2013-05-25 00:03:00,45.0,42.3,29.92,NW,324,4.0,11.0,90,0.01,,,0.62,0.0,meteohub,2013-05-25 04:03:00,
2013-05-25 00:08:00,44.6,41.9,29.90,SSW,207,2.0,11.0,90,0.02,,,0.00,0.0,meteohub,2013-05-25 04:08:00,
2013-05-25 00:13:00,44.4,41.7,29.92,NW,321,0.0,10.0,90,0.02,,,0.00,0.0,meteohub,2013-05-25 04:13:00,
2013-05-25 00:18:00,44.4,41.9,29.92,NE,44,2.0,10.0,91,0.02,,,0.00,0.0,meteohub,2013-05-25 04:18:00,
2013-05-25 00:23:00,44.4,41.9,29.92,West,276,2.0,9.0,91,0.02,,,0.00,0.0,meteohub,2013-05-25 04:23:00,
2013-05-25 00:28:00,44.4,41.7,29.92,NNW,331,1.0,9.0,90,0.03,,,0.01,0.0,meteohub,2013-05-25 04:28:00,
2013-05-25 00:33:00,44.6,41.5,29.92,North,0,2.0,9.0,89,0.03,,,0.01,0.0,meteohub,2013-05-25 04:33:00,
2013-05-25 00:38:00,44.8,42.1,29.93,WSW,249,3.0,10.0,90,0.03,,,0.01,0.0,meteohub,2013-05-25 04:38:00,
2013-05-25 00:43:00,45.1,42.4,29.94,West,277,2.0,13.0,90,0.03,,,0.01,0.0,meteohub,2013-05-25 04:43:00,
2013-05-25 00:48:00,45.1,42.1,29.94,ENE,74,4.0,13.0,89,0.03,,,0.01,0.0,meteohub,2013-05-25 04:48:00,
2013-05-25 00:53:00,45.3,42.3,29.94,NE,50,1.0,13.0,89,0.02,,,0.01,0.0,meteohub,2013-05-25 04:53:00,
2013-05-25 00:58:00,45.9,41.4,29.94,SSW,194,2.0,10.0,84,0.02,,,0.01,0.0,meteohub,2013-05-25 04:58:00,
2013-05-25 01:04:00,45.9,41.5,29.93,ENE,63,5.0,10.0,85,0.01,,,0.01,0.0,meteohub,2013-05-25 05:04:00,
2013-05-25 01:09:00,46.0,41.7,29.94,ENE,77,1.0,10.0,85,0.01,,,0.01,0.0,meteohub,2013-05-25 05:09:00,
2013-05-25 01:14:00,46.0,41.5,29.94,ESE,120,2.0,8.0,84,0.01,,,0.01,0.0,meteohub,2013-05-25 05:14:00,
2013-05-25 01:19:00,46.2,41.0,29.94,NNW,336,1.0,8.0,82,0.01,,,0.01,0.0,meteohub,2013-05-25 05:19:00,
2013-05-25 01:24:00,46.2,41.4,29.94,WNW,282,1.0,11.0,83,0.00,,,0.01,0.0,meteohub,2013-05-25 05:24:00,
2013-05-25 01:29:00,46.6,41.0,29.94,North,5,2.0,11.0,81,0.00,,,0.01,0.0,meteohub,2013-05-25 05:29:00,
2013-05-25 01:34:00,46.6,41.4,29.94,NW,316,0.0,11.0,82,0.00,,,0.01,0.0,meteohub,2013-05-25 05:34:00,
2013-05-25 01:39:00,46.6,41.0,29.93,WNW,303,1.0,10.0,81,0.00,,,0.01,0.0,meteohub,2013-05-25 05:39:00,
2013-05-25 01:44:00,46.8,41.2,29.93,WNW,303,1.0,8.0,81,0.00,,,0.01,0.0,meteohub,2013-05-25 05:44:00,
2013-05-25 01:49:00,46.8,41.9,29.94,West,271,5.0,14.0,83,0.00,,,0.01,0.0,meteohub,2013-05-25 05:49:00,
2013-05-25 01:54:00,46.9,41.7,29.93,NW,321,3.0,14.0,82,0.00,,,0.01,0.0,meteohub,2013-05-25 05:54:00,
2013-05-25 01:59:00,46.9,41.4,29.92,East,80,3.0,14.0,81,0.00,,,0.01,0.0,meteohub,2013-05-25 05:59:00,
2013-05-25 02:04:00,46.9,41.2,29.92,West,278,0.0,11.0,80,0.00,,,0.01,0.0,meteohub,2013-05-25 06:04:00,
2013-05-25 02:09:00,46.9,40.8,29.92,North,350,1.0,11.0,79,0.00,,,0.01,0.0,meteohub,2013-05-25 06:09:00,
2013-05-25 02:15:00,46.9,41.7,29.92,NNW,327,5.0,11.0,82,0.00,,,0.01,0.0,meteohub,2013-05-25 06:15:00,
2013-05-25 02:20:00,46.9,40.8,29.92,SSW,203,3.0,11.0,79,0.00,,,0.01,0.0,meteohub,2013-05-25 06:20:00,
2013-05-25 02:25:00,47.1,41.0,29.92,West,267,2.0,9.0,79,0.00,,,0.01,0.0,meteohub,2013-05-25 06:25:00,
2013-05-25 02:30:00,47.1,41.0,29.92,NNE,17,1.0,9.0,79,0.00,,,0.01,0.0,meteohub,2013-05-25 06:30:00,
2013-05-25 02:35:00,47.3,41.2,29.91,SSW,212,3.0,10.0,79,0.00,,,0.01,0.0,meteohub,2013-05-25 06:35:00,
2013-05-25 02:40:00,47.3,41.2,29.91,NNE,32,5.0,11.0,79,0.00,,,0.01,0.0,meteohub,2013-05-25 06:40:00,
2013-05-25 02:45:00,47.3,41.2,29.91,NW,314,3.0,11.0,79,0.00,,,0.01,0.0,meteohub,2013-05-25 06:45:00,
2013-05-25 02:50:00,47.1,41.9,29.91,North,355,5.0,10.0,82,0.00,,,0.01,0.0,meteohub,2013-05-25 06:50:00,
2013-05-25 02:55:00,46.9,41.4,29.91,WNW,296,4.0,6.0,81,0.00,,,0.01,0.0,meteohub,2013-05-25 06:55:00,
2013-05-25 03:00:00,46.9,41.4,29.91,SSW,206,1.0,7.0,81,0.00,,,0.01,0.0,meteohub,2013-05-25 07:00:00,
2013-05-25 03:05:00,46.8,41.9,29.91,WNW,295,1.0,7.0,83,0.00,,,0.01,0.0,meteohub,2013-05-25 07:05:00,
2013-05-25 03:10:00,46.4,42.1,29.90,NNW,329,4.0,10.0,85,0.00,,,0.01,0.0,meteohub,2013-05-25 07:10:00,
2013-05-25 03:15:00,46.0,42.6,29.91,NE,45,2.0,10.0,88,0.01,,,0.02,0.0,meteohub,2013-05-25 07:15:00,
2013-05-25 03:20:00,45.7,42.3,29.90,North,9,0.0,7.0,88,0.02,,,0.03,0.0,meteohub,2013-05-25 07:20:00,
2013-05-25 03:26:00,45.3,42.3,29.90,ENE,69,4.0,14.0,89,0.02,,,0.03,0.0,meteohub,2013-05-25 07:26:00,
2013-05-25 03:31:00,45.1,42.1,29.90,WSW,250,1.0,14.0,89,0.03,,,0.04,0.0,meteohub,2013-05-25 07:31:00,
2013-05-25 03:36:00,45.0,42.3,29.89,East,86,7.0,10.0,90,0.03,,,0.04,0.0,meteohub,2013-05-25 07:36:00,
2013-05-25 03:41:00,45.0,42.3,29.89,NW,321,2.0,10.0,90,0.04,,,0.05,0.0,meteohub,2013-05-25 07:41:00,
2013-05-25 03:46:00,44.8,42.3,29.89,ESE,113,1.0,7.0,91,0.05,,,0.06,0.0,meteohub,2013-05-25 07:46:00,
2013-05-25 03:51:00,44.8,42.1,29.90,NNE,19,2.0,10.0,90,0.05,,,0.06,0.0,meteohub,2013-05-25 07:51:00,
2013-05-25 03:56:00,44.8,42.3,29.90,ESE,109,1.0,10.0,91,0.06,,,0.07,0.0,meteohub,2013-05-25 07:56:00,
2013-05-25 04:01:00,44.8,42.1,29.89,NE,39,4.0,10.0,90,0.06,,,0.07,0.0,meteohub,2013-05-25 08:01:00,
2013-05-25 04:06:00,44.8,42.1,29.89,WNW,302,2.0,9.0,90,0.06,,,0.07,0.0,meteohub,2013-05-25 08:06:00,
2013-05-25 04:11:00,44.8,42.1,29.90,WNW,295,6.0,9.0,90,0.06,,,0.08,0.0,meteohub,2013-05-25 08:11:00,
2013-05-25 04:16:00,44.8,42.1,29.90,SW,236,0.0,10.0,90,0.06,,,0.08,0.0,meteohub,2013-05-25 08:16:00,
2013-05-25 04:21:00,44.8,42.3,29.90,West,264,4.0,11.0,91,0.06,,,0.09,0.0,meteohub,2013-05-25 08:21:00,
2013-05-25 04:26:00,44.6,42.1,29.90,NNW,345,0.0,11.0,91,0.05,,,0.09,0.0,meteohub,2013-05-25 08:26:00,
2013-05-25 04:31:00,44.6,42.1,29.91,West,259,2.0,11.0,91,0.05,,,0.09,0.0,meteohub,2013-05-25 08:31:00,
2013-05-25 04:37:00,44.6,42.1,29.91,WNW,285,5.0,8.0,91,0.05,,,0.09,0.0,meteohub,2013-05-25 08:37:00,
2013-05-25 04:42:00,44.6,42.1,29.91,ENE,59,2.0,12.0,91,0.05,,,0.10,0.0,meteohub,2013-05-25 08:42:00,
2013-05-25 04:47:00,44.8,42.3,29.91,NE,41,3.0,12.0,91,0.04,,,0.10,0.0,meteohub,2013-05-25 08:47:00,
2013-05-25 04:52:00,44.6,42.1,29.91,NNE,17,0.0,12.0,91,0.05,,,0.11,0.0,meteohub,2013-05-25 08:52:00,
2013-05-25 04:57:00,44.6,42.4,29.91,SSW,195,2.0,8.0,92,0.05,,,0.12,0.0,meteohub,2013-05-25 08:57:00,
2013-05-25 05:02:00,44.4,42.3,29.91,West,276,4.0,8.0,92,0.05,,,0.12,0.0,meteohub,2013-05-25 09:02:00,
2013-05-25 05:07:00,44.4,42.4,29.91,ENE,65,3.0,7.0,93,0.06,,,0.13,0.0,meteohub,2013-05-25 09:07:00,
2013-05-25 05:12:00,44.2,42.3,29.91,NW,315,1.0,7.0,93,0.06,,,0.14,0.0,meteohub,2013-05-25 09:12:00,
2013-05-25 05:17:00,44.2,42.3,29.91,ESE,114,1.0,7.0,93,0.06,,,0.14,0.0,meteohub,2013-05-25 09:17:00,
2013-05-25 05:22:00,44.2,42.3,29.91,West,259,1.0,7.0,93,0.06,,,0.15,0.0,meteohub,2013-05-25 09:22:00,
2013-05-25 05:27:00,44.2,42.3,29.91,West,268,1.0,5.0,93,0.07,,,0.16,0.0,meteohub,2013-05-25 09:27:00,
2013-05-25 05:32:00,44.1,42.1,29.91,East,98,1.0,5.0,93,0.08,,,0.17,0.0,meteohub,2013-05-25 09:32:00,
2013-05-25 05:37:00,44.1,42.1,29.91,NNE,25,1.0,7.0,93,0.08,,,0.18,0.0,meteohub,2013-05-25 09:37:00,
2013-05-25 05:42:00,44.1,42.1,29.91,ESE,104,0.0,8.0,93,0.08,,,0.18,0.0,meteohub,2013-05-25 09:42:00,
2013-05-25 05:47:00,44.1,42.1,29.91,NNW,331,1.0,8.0,93,0.09,,,0.19,0.0,meteohub,2013-05-25 09:47:00,
2013-05-25 05:52:00,44.1,42.1,29.91,WSW,249,1.0,8.0,93,0.09,,,0.20,0.0,meteohub,2013-05-25 09:52:00,
2013-05-25 05:57:00,44.1,42.4,29.92,NE,45,2.0,9.0,94,0.08,,,0.20,0.0,meteohub,2013-05-25 09:57:00,
2013-05-25 06:02:00,44.1,42.4,29.91,NW,309,0.0,9.0,94,0.09,,,0.21,5.0,meteohub,2013-05-25 10:02:00,
2013-05-25 06:07:00,44.1,42.4,29.91,NE,42,1.0,9.0,94,0.09,,,0.22,7.0,meteohub,2013-05-25 10:07:00,
2013-05-25 06:12:00,44.1,42.4,29.91,North,9,1.0,5.0,94,0.08,,,0.22,7.0,meteohub,2013-05-25 10:12:00,
2013-05-25 06:17:00,44.1,42.4,29.91,North,350,0.0,5.0,94,0.08,,,0.23,9.0,meteohub,2013-05-25 10:17:00,
2013-05-25 06:22:00,44.1,42.4,29.91,East,89,1.0,5.0,94,0.08,,,0.24,11.0,meteohub,2013-05-25 10:22:00,
2013-05-25 06:27:00,44.1,42.4,29.91,NE,51,1.0,7.0,94,0.08,,,0.24,11.0,meteohub,2013-05-25 10:27:00,
2013-05-25 06:32:00,44.1,42.4,29.91,NW,326,3.0,11.0,94,0.08,,,0.25,12.0,meteohub,2013-05-25 10:32:00,
2013-05-25 06:37:00,44.2,42.3,29.91,NNW,342,4.0,11.0,93,0.07,,,0.25,14.0,meteohub,2013-05-25 10:37:00,
2013-05-25 06:42:00,44.2,42.3,29.91,WNW,296,0.0,11.0,93,0.08,,,0.26,14.0,meteohub,2013-05-25 10:42:00,
2013-05-25 06:47:00,44.2,42.6,29.92,NW,318,0.0,9.0,94,0.07,,,0.26,18.0,meteohub,2013-05-25 10:47:00,
2013-05-25 06:52:00,44.2,42.6,29.91,NNW,339,0.0,8.0,94,0.07,,,0.27,23.0,meteohub,2013-05-25 10:52:00,
2013-05-25 06:57:00,44.2,42.6,29.91,North,0,0.0,8.0,94,0.08,,,0.28,30.0,meteohub,2013-05-25 10:57:00,
2013-05-25 07:02:00,44.2,42.3,29.92,North,349,6.0,7.0,93,0.08,,,0.29,42.0,meteohub,2013-05-25 11:02:00,
2013-05-25 07:07:00,44.2,42.3,29.91,West,275,1.0,7.0,93,0.08,,,0.30,54.0,meteohub,2013-05-25 11:07:00,
2013-05-25 07:12:00,44.2,42.3,29.92,NNE,25,2.0,7.0,93,0.08,,,0.30,67.0,meteohub,2013-05-25 11:12:00,
2013-05-25 07:17:00,44.4,42.4,29.92,ESE,105,1.0,10.0,93,0.08,,,0.31,86.0,meteohub,2013-05-25 11:17:00,
2013-05-25 07:22:00,44.4,42.4,29.91,North,10,2.0,10.0,93,0.08,,,0.32,102.0,meteohub,2013-05-25 11:22:00,
2013-05-25 07:27:00,44.6,43.0,29.92,NE,53,0.0,6.0,94,0.09,,,0.33,113.0,meteohub,2013-05-25 11:27:00,
2013-05-25 07:32:00,44.8,42.8,29.92,SE,134,4.0,4.0,93,0.09,,,0.34,118.0,meteohub,2013-05-25 11:32:00,
2013-05-25 07:37:00,44.8,43.2,29.92,NNE,23,2.0,8.0,94,0.10,,,0.35,118.0,meteohub,2013-05-25 11:37:00,
2013-05-25 07:42:00,45.0,43.0,29.92,ENE,71,1.0,8.0,93,0.09,,,0.35,127.0,meteohub,2013-05-25 11:42:00,
2013-05-25 07:47:00,45.0,43.0,29.92,WNW,300,0.0,8.0,93,0.09,,,0.36,149.0,meteohub,2013-05-25 11:47:00,
2013-05-25 07:52:00,45.3,43.7,29.92,SSW,209,0.0,6.0,94,0.09,,,0.36,158.0,meteohub,2013-05-25 11:52:00,
2013-05-25 07:57:00,45.3,43.2,29.93,NNW,337,1.0,5.0,92,0.08,,,0.36,148.0,meteohub,2013-05-25 11:57:00,
2013-05-25 08:02:00,45.7,43.5,29.92,North,0,1.0,7.0,92,0.08,,,0.37,151.0,meteohub,2013-05-25 12:02:00,
2013-05-25 08:07:00,45.7,43.5,29.91,North,355,4.0,8.0,92,0.07,,,0.37,139.0,meteohub,2013-05-25 12:07:00,
2013-05-25 08:12:00,45.7,43.7,29.92,NW,322,3.0,9.0,93,0.07,,,0.38,128.0,meteohub,2013-05-25 12:12:00,
2013-05-25 08:17:00,45.7,43.7,29.92,NW,313,1.0,9.0,93,0.07,,,0.38,120.0,meteohub,2013-05-25 12:17:00,
2013-05-25 08:22:00,45.7,43.2,29.92,ENE,70,2.0,9.0,91,0.06,,,0.38,123.0,meteohub,2013-05-25 12:22:00,
2013-05-25 08:27:00,45.9,43.3,29.92,East,101,6.0,15.0,91,0.05,,,0.38,132.0,meteohub,2013-05-25 12:27:00,
2013-05-25 08:32:00,45.9,43.3,29.92,NW,306,1.0,15.0,91,0.04,,,0.38,135.0,meteohub,2013-05-25 12:32:00,
2013-05-25 08:37:00,46.0,43.5,29.92,SSE,159,4.0,15.0,91,0.03,,,0.38,139.0,meteohub,2013-05-25 12:37:00,
2013-05-25 08:42:00,46.0,43.3,29.92,West,276,2.0,8.0,90,0.03,,,0.38,142.0,meteohub,2013-05-25 12:42:00,
2013-05-25 08:47:00,46.0,43.0,29.92,NE,50,6.0,9.0,89,0.02,,,0.38,142.0,meteohub,2013-05-25 12:47:00,
2013-05-25 08:52:00,46.2,43.2,29.92,NE,34,2.0,9.0,89,0.02,,,0.38,144.0,meteohub,2013-05-25 12:52:00,
2013-05-25 08:57:00,46.2,43.2,29.92,East,80,10.0,13.0,89,0.02,,,0.38,149.0,meteohub,2013-05-25 12:57:00,
2013-05-25 09:02:00,46.6,42.6,29.93,NE,49,3.0,13.0,86,0.02,,,0.39,151.0,meteohub,2013-05-25 13:02:00,
2013-05-25 09:07:00,46.8,43.3,29.92,NNW,346,2.0,13.0,88,0.02,,,0.39,153.0,meteohub,2013-05-25 13:07:00,
2013-05-25 09:12:00,46.9,42.6,29.92,NNE,26,0.0,10.0,85,0.01,,,0.39,153.0,meteohub,2013-05-25 13:12:00,
2013-05-25 09:17:00,47.1,42.6,29.91,NE,46,2.0,10.0,84,0.01,,,0.39,156.0,meteohub,2013-05-25 13:17:00,
2013-05-25 09:22:00,47.1,42.3,29.92,NW,317,0.0,21.0,83,0.01,,,0.39,171.0,meteohub,2013-05-25 13:22:00,
2013-05-25 09:27:00,47.3,43.0,29.92,East,80,1.0,21.0,85,0.01,,,0.39,190.0,meteohub,2013-05-25 13:27:00,
2013-05-25 09:32:00,47.3,42.4,29.91,NE,49,1.0,21.0,83,0.01,,,0.39,197.0,meteohub,2013-05-25 13:32:00,
2013-05-25 09:37:00,47.5,43.5,29.91,NNW,333,2.0,9.0,86,0.01,,,0.39,199.0,meteohub,2013-05-25 13:37:00,
2013-05-25 09:42:00,47.5,42.6,29.92,NE,46,2.0,11.0,83,0.01,,,0.39,204.0,meteohub,2013-05-25 13:42:00,
2013-05-25 09:47:00,47.3,42.8,29.92,NW,304,0.0,13.0,84,0.01,,,0.39,193.0,meteohub,2013-05-25 13:47:00,
2013-05-25 09:52:00,47.1,43.5,29.92,NNE,21,2.0,13.0,87,0.01,,,0.39,190.0,meteohub,2013-05-25 13:52:00,
2013-05-25 09:57:00,46.9,43.5,29.91,NW,326,2.0,13.0,88,0.00,,,0.39,186.0,meteohub,2013-05-25 13:57:00,
2013-05-25 10:02:00,46.6,43.5,29.92,WNW,297,0.0,9.0,89,0.01,,,0.40,183.0,meteohub,2013-05-25 14:02:00,
2013-05-25 10:07:00,46.4,43.7,29.92,NW,308,1.0,9.0,90,0.01,,,0.40,179.0,meteohub,2013-05-25 14:07:00,
2013-05-25 10:12:00,46.2,42.8,29.92,NE,51,3.0,9.0,88,0.01,,,0.40,179.0,meteohub,2013-05-25 14:12:00,
2013-05-25 10:17:00,46.2,43.7,29.92,SW,219,1.0,9.0,91,0.01,,,0.40,190.0,meteohub,2013-05-25 14:17:00,
2013-05-25 10:22:00,46.2,43.5,29.91,NW,324,2.0,6.0,90,0.01,,,0.40,185.0,meteohub,2013-05-25 14:22:00,
2013-05-25 10:27:00,46.0,43.3,29.91,ENE,69,3.0,10.0,90,0.02,,,0.41,171.0,meteohub,2013-05-25 14:27:00,
2013-05-25 10:32:00,46.0,43.3,29.91,West,261,5.0,10.0,90,0.02,,,0.41,186.0,meteohub,2013-05-25 14:32:00,
2013-05-25 10:37:00,45.9,42.8,29.91,North,5,4.0,10.0,89,0.03,,,0.42,206.0,meteohub,2013-05-25 14:37:00,
2013-05-25 10:42:00,46.0,43.3,29.91,ENE,71,1.0,8.0,90,0.03,,,0.42,214.0,meteohub,2013-05-25 14:42:00,
2013-05-25 10:47:00,46.2,43.7,29.91,NNE,29,2.0,8.0,91,0.03,,,0.42,236.0,meteohub,2013-05-25 14:47:00,
2013-05-25 10:52:00,46.6,43.9,29.91,East,85,2.0,8.0,90,0.03,,,0.42,253.0,meteohub,2013-05-25 14:52:00,
2013-05-25 10:57:00,46.8,43.2,29.91,WNW,285,1.0,8.0,87,0.03,,,0.42,251.0,meteohub,2013-05-25 14:57:00,
2013-05-25 11:02:00,46.9,43.9,29.91,NE,55,4.0,12.0,89,0.02,,,0.42,229.0,meteohub,2013-05-25 15:02:00,
2013-05-25 11:07:00,46.9,43.9,29.91,NNW,343,1.0,12.0,89,0.02,,,0.42,216.0,meteohub,2013-05-25 15:07:00,
2013-05-25 11:12:00,46.8,43.7,29.91,ENE,65,5.0,8.0,89,0.03,,,0.43,239.0,meteohub,2013-05-25 15:12:00,
2013-05-25 11:17:00,46.8,43.3,29.91,West,279,2.0,8.0,88,0.03,,,0.43,239.0,meteohub,2013-05-25 15:17:00,
2013-05-25 11:22:00,46.8,43.7,29.91,NW,316,3.0,7.0,89,0.02,,,0.43,243.0,meteohub,2013-05-25 15:22:00,
2013-05-25 11:27:00,46.9,43.3,29.91,NNW,341,2.0,10.0,87,0.02,,,0.43,264.0,meteohub,2013-05-25 15:27:00,
2013-05-25 11:35:00,47.1,43.2,29.91,NW,323,2.0,15.0,86,0.02,,,0.44,350.0,meteohub,2013-05-25 15:35:00,
2013-05-25 11:40:00,47.5,44.1,29.91,NNW,345,1.0,15.0,88,0.02,,,0.44,471.0,meteohub,2013-05-25 15:40:00,
2013-05-25 11:45:00,48.0,44.6,29.91,WSW,250,2.0,8.0,88,0.02,,,0.44,561.0,meteohub,2013-05-25 15:45:00,
2013-05-25 11:51:00,48.6,43.9,29.91,SSE,163,1.0,12.0,84,0.02,,,0.44,541.0,meteohub,2013-05-25 15:51:00,
2013-05-25 11:56:00,48.9,45.9,29.92,WNW,294,2.0,12.0,89,0.02,,,0.44,475.0,meteohub,2013-05-25 15:56:00,
2013-05-25 12:01:00,49.3,44.1,29.91,WSW,238,2.0,12.0,82,0.02,,,0.44,534.0,meteohub,2013-05-25 16:01:00,
2013-05-25 12:06:00,49.6,44.1,29.91,SE,144,1.0,9.0,81,0.02,,,0.44,482.0,meteohub,2013-05-25 16:06:00,
2013-05-25 12:11:00,50.0,45.0,29.91,NE,38,3.0,8.0,83,0.01,,,0.44,422.0,meteohub,2013-05-25 16:11:00,
2013-05-25 12:16:00,50.2,44.2,29.91,South,184,1.0,9.0,80,0.01,,,0.44,373.0,meteohub,2013-05-25 16:16:00,
2013-05-25 12:21:00,50.2,44.6,29.91,NE,41,3.0,9.0,81,0.01,,,0.44,281.0,meteohub,2013-05-25 16:21:00,
2013-05-25 12:26:00,49.8,43.0,29.91,North,0,3.0,11.0,77,0.01,,,0.44,278.0,meteohub,2013-05-25 16:26:00,
2013-05-25 12:31:00,49.6,43.7,29.91,WSW,246,3.0,11.0,80,0.01,,,0.44,294.0,meteohub,2013-05-25 16:31:00,
2013-05-25 12:36:00,49.3,43.3,29.91,NE,42,3.0,14.0,80,0.00,,,0.44,323.0,meteohub,2013-05-25 16:36:00,
2013-05-25 12:41:00,49.1,44.2,29.92,NW,324,2.0,14.0,83,0.00,,,0.44,325.0,meteohub,2013-05-25 16:41:00,
2013-05-25 12:46:00,48.9,45.0,29.91,ENE,73,3.0,14.0,86,0.00,,,0.44,385.0,meteohub,2013-05-25 16:46:00,
2013-05-25 12:51:00,48.9,45.1,29.91,West,280,5.0,11.0,87,0.00,,,0.44,392.0,meteohub,2013-05-25 16:51:00,
2013-05-25 12:56:00,48.9,44.2,29.91,South,187,4.0,11.0,84,0.01,,,0.44,390.0,meteohub,2013-05-25 16:56:00,
2013-05-25 13:02:00,48.7,43.5,29.92,West,270,3.0,11.0,82,0.01,,,0.45,343.0,meteohub,2013-05-25 17:02:00,
2013-05-25 13:07:00,48.6,43.7,29.92,WSW,256,2.0,10.0,83,0.01,,,0.45,378.0,meteohub,2013-05-25 17:07:00,
2013-05-25 13:12:00,48.4,44.8,29.92,North,351,0.0,10.0,87,0.01,,,0.45,387.0,meteohub,2013-05-25 17:12:00,
2013-05-25 13:17:00,48.4,44.4,29.92,NNW,338,0.0,9.0,86,0.01,,,0.45,396.0,meteohub,2013-05-25 17:17:00,
2013-05-25 13:22:00,48.6,44.6,29.92,East,90,3.0,8.0,86,0.02,,,0.46,345.0,meteohub,2013-05-25 17:22:00,
2013-05-25 13:27:00,48.7,45.0,29.92,NE,51,3.0,9.0,87,0.02,,,0.46,348.0,meteohub,2013-05-25 17:27:00,
2013-05-25 13:32:00,48.9,44.1,29.93,SSW,211,2.0,9.0,83,0.02,,,0.46,371.0,meteohub,2013-05-25 17:32:00,
2013-05-25 13:37:00,49.3,44.6,29.92,WSW,238,2.0,9.0,84,0.02,,,0.46,367.0,meteohub,2013-05-25 17:37:00,
2013-05-25 13:42:00,49.3,43.3,29.91,SSE,167,3.0,10.0,80,0.02,,,0.46,367.0,meteohub,2013-05-25 17:42:00,
2013-05-25 13:47:00,49.5,44.2,29.92,East,80,2.0,10.0,82,0.02,,,0.46,371.0,meteohub,2013-05-25 17:47:00,
2013-05-25 13:52:00,49.5,43.2,29.91,SE,145,2.0,10.0,79,0.02,,,0.46,396.0,meteohub,2013-05-25 17:52:00,
2013-05-25 13:57:00,49.6,44.4,29.92,North,5,0.0,10.0,82,0.01,,,0.46,383.0,meteohub,2013-05-25 17:57:00,
2013-05-25 14:02:00,49.8,43.9,29.92,NNE,26,1.0,10.0,80,0.01,,,0.46,369.0,meteohub,2013-05-25 18:02:00,
2013-05-25 14:07:00,49.8,42.3,29.92,SSW,206,10.0,10.0,75,0.01,,,0.46,364.0,meteohub,2013-05-25 18:07:00,
2013-05-25 14:12:00,50.0,42.4,29.92,NE,35,2.0,10.0,75,0.01,,,0.46,390.0,meteohub,2013-05-25 18:12:00,
2013-05-25 14:17:00,50.2,41.5,29.92,ESE,106,2.0,13.0,72,0.00,,,0.46,378.0,meteohub,2013-05-25 18:17:00,
2013-05-25 14:22:00,50.2,41.9,29.92,North,5,1.0,13.0,73,0.00,,,0.46,346.0,meteohub,2013-05-25 18:22:00,
2013-05-25 14:27:00,50.4,42.4,29.93,West,261,4.0,20.0,74,0.00,,,0.46,339.0,meteohub,2013-05-25 18:27:00,
2013-05-25 14:32:00,50.4,42.4,29.92,NW,315,3.0,20.0,74,0.00,,,0.46,302.0,meteohub,2013-05-25 18:32:00,
2013-05-25 14:37:00,50.4,41.7,29.92,NW,325,1.0,20.0,72,0.00,,,0.46,262.0,meteohub,2013-05-25 18:37:00,
2013-05-25 14:42:00,50.0,41.0,29.94,NNW,340,8.0,13.0,71,0.00,,,0.46,239.0,meteohub,2013-05-25 18:42:00,
2013-05-25 14:47:00,49.8,41.5,29.93,NW,325,3.0,16.0,73,0.00,,,0.46,230.0,meteohub,2013-05-25 18:47:00,
2013-05-25 14:52:00,49.6,42.8,29.91,NNE,27,4.0,16.0,77,0.00,,,0.46,193.0,meteohub,2013-05-25 18:52:00,
2013-05-25 14:57:00,49.3,41.7,29.94,NE,35,3.0,12.0,75,0.00,,,0.46,176.0,meteohub,2013-05-25 18:57:00,
2013-05-25 15:05:00,48.7,41.9,29.92,NW,324,1.0,12.0,77,0.00,,,0.46,213.0,meteohub,2013-05-25 19:05:00,
2013-05-25 15:10:00,48.6,42.3,29.92,SSE,152,6.0,10.0,79,0.00,,,0.46,220.0,meteohub,2013-05-25 19:10:00,
2013-05-25 15:15:00,48.4,41.2,29.92,NE,55,2.0,10.0,76,0.00,,,0.46,183.0,meteohub,2013-05-25 19:15:00,
2013-05-25 15:20:00,48.2,42.6,29.92,East,101,6.0,10.0,81,0.00,,,0.46,155.0,meteohub,2013-05-25 19:20:00,
2013-05-25 15:25:00,48.0,41.9,29.93,WSW,257,5.0,10.0,79,0.00,,,0.46,160.0,meteohub,2013-05-25 19:25:00,
2013-05-25 15:30:00,48.0,41.9,29.92,West,263,2.0,9.0,79,0.00,,,0.46,167.0,meteohub,2013-05-25 19:30:00,
2013-05-25 15:35:00,48.2,42.1,29.93,West,265,2.0,15.0,79,0.00,,,0.46,195.0,meteohub,2013-05-25 19:35:00,
2013-05-25 15:40:00,48.4,41.5,29.92,South,169,2.0,15.0,77,0.00,,,0.46,174.0,meteohub,2013-05-25 19:40:00,
2013-05-25 15:45:00,48.6,41.0,29.92,East,97,6.0,15.0,75,0.00,,,0.46,167.0,meteohub,2013-05-25 19:45:00,
2013-05-25 15:50:00,48.7,40.1,29.93,NNE,19,4.0,11.0,72,0.01,,,0.47,179.0,meteohub,2013-05-25 19:50:00,
2013-05-25 15:55:00,49.1,40.1,29.93,East,88,2.0,11.0,71,0.01,,,0.47,213.0,meteohub,2013-05-25 19:55:00,
2013-05-25 16:00:00,49.3,41.4,29.93,NW,317,5.0,11.0,74,0.01,,,0.47,253.0,meteohub,2013-05-25 20:00:00,
2013-05-25 16:05:00,49.5,40.8,29.94,SW,227,1.0,9.0,72,0.01,,,0.47,241.0,meteohub,2013-05-25 20:05:00,
2013-05-25 16:11:00,49.6,40.6,29.93,West,277,5.0,15.0,71,0.01,,,0.47,211.0,meteohub,2013-05-25 20:11:00,
2013-05-25 16:16:00,49.8,39.7,29.92,NW,321,3.0,15.0,68,0.01,,,0.47,234.0,meteohub,2013-05-25 20:16:00,
2013-05-25 16:21:00,49.8,40.8,29.93,West,277,1.0,15.0,71,0.01,,,0.47,274.0,meteohub,2013-05-25 20:21:00,
2013-05-25 16:26:00,50.2,42.3,29.93,NW,318,4.0,9.0,74,0.01,,,0.47,276.0,meteohub,2013-05-25 20:26:00,
2013-05-25 16:31:00,50.4,39.7,29.93,North,5,2.0,8.0,67,0.01,,,0.47,255.0,meteohub,2013-05-25 20:31:00,
2013-05-25 16:36:00,50.4,40.3,29.93,WNW,294,3.0,10.0,68,0.01,,,0.47,243.0,meteohub,2013-05-25 20:36:00,
2013-05-25 16:41:00,50.4,40.3,29.94,WNW,302,4.0,10.0,68,0.01,,,0.47,229.0,meteohub,2013-05-25 20:41:00,
2013-05-25 16:46:00,50.4,41.0,29.93,SW,224,1.0,10.0,70,0.01,,,0.47,239.0,meteohub,2013-05-25 20:46:00,
2013-05-25 16:51:00,50.4,41.4,29.94,NE,44,4.0,10.0,71,0.00,,,0.47,248.0,meteohub,2013-05-25 20:51:00,
2013-05-25 16:56:00,50.4,41.7,29.94,NNW,337,2.0,12.0,72,0.00,,,0.47,253.0,meteohub,2013-05-25 20:56:00,
2013-05-25 17:01:00,50.5,40.5,29.94,West,259,2.0,12.0,68,0.00,,,0.47,253.0,meteohub,2013-05-25 21:01:00,
2013-05-25 17:06:00,50.7,41.7,29.93,NNW,336,2.0,12.0,71,0.00,,,0.47,244.0,meteohub,2013-05-25 21:06:00,
2013-05-25 17:11:00,51.1,41.2,29.94,NE,51,0.0,11.0,69,0.00,,,0.47,227.0,meteohub,2013-05-25 21:11:00,
2013-05-25 17:17:00,50.9,41.9,29.94,WNW,288,1.0,11.0,71,0.00,,,0.47,190.0,meteohub,2013-05-25 21:17:00,
2013-05-25 17:22:00,50.5,41.5,29.94,NNE,32,1.0,11.0,71,0.00,,,0.47,158.0,meteohub,2013-05-25 21:22:00,
2013-05-25 17:27:00,50.4,41.4,29.94,East,80,1.0,9.0,71,0.00,,,0.47,141.0,meteohub,2013-05-25 21:27:00,
2013-05-25 17:32:00,50.0,40.6,29.92,WSW,248,5.0,13.0,70,0.00,,,0.47,134.0,meteohub,2013-05-25 21:32:00,
2013-05-25 17:37:00,49.6,40.3,29.93,SW,233,3.0,13.0,70,0.00,,,0.47,125.0,meteohub,2013-05-25 21:37:00,
2013-05-25 17:42:00,49.6,40.3,29.94,ENE,71,1.0,13.0,70,0.00,,,0.47,162.0,meteohub,2013-05-25 21:42:00,
2013-05-25 17:47:00,49.6,39.6,29.94,North,10,3.0,10.0,68,0.00,,,0.47,190.0,meteohub,2013-05-25 21:47:00,
2013-05-25 17:52:00,49.8,40.5,29.94,West,281,2.0,9.0,70,0.00,,,0.47,181.0,meteohub,2013-05-25 21:52:00,
2013-05-25 17:57:00,49.8,40.5,29.93,WNW,290,2.0,14.0,70,0.00,,,0.47,146.0,meteohub,2013-05-25 21:57:00,
2013-05-25 18:02:00,49.8,40.5,29.94,NW,304,2.0,14.0,70,0.00,,,0.47,128.0,meteohub,2013-05-25 22:02:00,
2013-05-25 18:07:00,49.8,40.8,29.94,NNE,33,2.0,14.0,71,0.00,,,0.47,118.0,meteohub,2013-05-25 22:07:00,
2013-05-25 18:12:00,49.6,41.4,29.94,WNW,301,2.0,13.0,73,0.00,,,0.47,111.0,meteohub,2013-05-25 22:12:00,
2013-05-25 18:17:00,49.3,41.0,29.94,North,5,2.0,13.0,73,0.00,,,0.47,104.0,meteohub,2013-05-25 22:17:00,
2013-05-25 18:22:00,48.9,40.3,29.94,SW,221,6.0,13.0,72,0.00,,,0.47,84.0,meteohub,2013-05-25 22:22:00,
2013-05-25 18:27:00,48.6,41.4,29.95,West,259,4.0,11.0,76,0.00,,,0.47,77.0,meteohub,2013-05-25 22:27:00,
2013-05-25 18:32:00,48.0,41.5,29.94,NNE,29,2.0,14.0,78,0.00,,,0.47,70.0,meteohub,2013-05-25 22:32:00,
2013-05-25 18:37:00,47.7,41.2,29.95,NNE,29,3.0,16.0,78,0.00,,,0.47,69.0,meteohub,2013-05-25 22:37:00,
2013-05-25 18:42:00,47.7,41.5,29.95,NNE,24,3.0,16.0,79,0.00,,,0.47,97.0,meteohub,2013-05-25 22:42:00,
2013-05-25 18:48:00,47.7,41.5,29.95,NNW,330,2.0,16.0,79,0.00,,,0.47,118.0,meteohub,2013-05-25 22:48:00,
2013-05-25 18:53:00,47.8,41.0,29.95,East,98,2.0,8.0,77,0.00,,,0.47,105.0,meteohub,2013-05-25 22:53:00,
2013-05-25 18:58:00,48.0,40.8,29.96,NW,317,2.0,17.0,76,0.00,,,0.47,102.0,meteohub,2013-05-25 22:58:00,
2013-05-25 19:03:00,48.0,41.5,29.97,NW,318,2.0,17.0,78,0.00,,,0.47,105.0,meteohub,2013-05-25 23:03:00,
2013-05-25 19:08:00,48.2,41.4,29.96,NE,40,2.0,17.0,77,0.00,,,0.47,81.0,meteohub,2013-05-25 23:08:00,
2013-05-25 19:13:00,48.4,39.7,29.96,West,270,1.0,18.0,72,0.00,,,0.47,51.0,meteohub,2013-05-25 23:13:00,
2013-05-25 19:18:00,48.4,41.2,29.97,NE,42,3.0,18.0,76,0.00,,,0.47,58.0,meteohub,2013-05-25 23:18:00,
2013-05-25 19:23:00,48.2,40.3,29.96,ESE,123,0.0,12.0,74,0.00,,,0.47,47.0,meteohub,2013-05-25 23:23:00,
2013-05-25 19:28:00,48.0,39.7,29.96,WSW,254,2.0,12.0,73,0.00,,,0.47,28.0,meteohub,2013-05-25 23:28:00,
2013-05-25 19:34:00,48.2,39.6,29.96,SW,225,0.0,13.0,72,0.00,,,0.47,21.0,meteohub,2013-05-25 23:34:00,
2013-05-25 19:44:00,48.4,39.7,29.96,SE,126,3.0,13.0,72,0.00,,,0.47,12.0,meteohub,2013-05-25 23:44:00,
2013-05-25 19:49:00,48.4,39.4,29.97,East,96,3.0,12.0,71,0.00,,,0.47,9.0,meteohub,2013-05-25 23:49:00,
2013-05-25 19:54:00,48.4,39.0,29.96,East,90,2.0,16.0,70,0.00,,,0.47,9.0,meteohub,2013-05-25 23:54:00,
2013-05-25 19:59:00,48.4,39.7,29.96,WSW,248,4.0,16.0,72,0.00,,,0.47,5.0,meteohub,2013-05-25 23:59:00,
2013-05-25 20:04:00,48.0,39.4,29.96,SW,226,7.0,16.0,72,0.00,,,0.47,0.0,meteohub,2013-05-26 00:04:00,
2013-05-25 20:09:00,48.0,39.0,29.97,West,279,3.0,9.0,71,0.00,,,0.47,0.0,meteohub,2013-05-26 00:09:00,
2013-05-25 20:14:00,48.0,38.7,29.97,NW,319,0.0,11.0,70,0.00,,,0.47,0.0,meteohub,2013-05-26 00:14:00,
2013-05-25 20:20:00,48.0,39.4,29.96,NW,304,2.0,11.0,72,0.00,,,0.47,0.0,meteohub,2013-05-26 00:20:00,
2013-05-25 20:25:00,47.8,39.6,29.96,ESE,110,3.0,11.0,73,0.00,,,0.47,0.0,meteohub,2013-05-26 00:25:00,
2013-05-25 20:30:00,47.8,39.2,29.96,NW,321,0.0,11.0,72,0.00,,,0.47,0.0,meteohub,2013-05-26 00:30:00,
2013-05-25 20:35:00,47.7,40.1,29.96,South,178,1.0,7.0,75,0.00,,,0.47,0.0,meteohub,2013-05-26 00:35:00,
2013-05-25 20:40:00,47.5,39.9,29.96,ENE,57,1.0,11.0,75,0.00,,,0.47,0.0,meteohub,2013-05-26 00:40:00,
2013-05-25 20:45:00,47.1,39.9,29.96,ENE,77,1.0,11.0,76,0.00,,,0.47,0.0,meteohub,2013-05-26 00:45:00,
2013-05-25 20:50:00,46.9,40.8,29.96,ENE,76,0.0,6.0,79,0.00,,,0.47,0.0,meteohub,2013-05-26 00:50:00,
2013-05-25 20:55:00,46.8,40.3,29.96,WSW,255,0.0,6.0,78,0.00,,,0.47,0.0,meteohub,2013-05-26 00:55:00,
2013-05-25 21:00:00,46.6,39.7,29.95,West,266,3.0,6.0,77,0.00,,,0.47,0.0,meteohub,2013-05-26 01:00:00,
2013-05-25 21:05:00,46.8,39.9,29.97,NE,34,4.0,8.0,77,0.01,,,0.48,0.0,meteohub,2013-05-26 01:05:00,
2013-05-25 21:10:00,46.9,41.2,29.97,SW,234,2.0,8.0,80,0.01,,,0.48,0.0,meteohub,2013-05-26 01:10:00,
2013-05-25 21:15:00,46.8,40.3,29.96,South,173,1.0,9.0,78,0.01,,,0.48,0.0,meteohub,2013-05-26 01:15:00,
2013-05-25 21:21:00,46.8,39.6,29.96,NNE,33,5.0,9.0,76,0.01,,,0.48,0.0,meteohub,2013-05-26 01:21:00,
2013-05-25 21:26:00,46.9,40.5,29.97,West,271,1.0,9.0,78,0.01,,,0.48,0.0,meteohub,2013-05-26 01:26:00,
2013-05-25 21:31:00,46.8,39.2,29.97,North,5,2.0,10.0,75,0.01,,,0.48,0.0,meteohub,2013-05-26 01:31:00,
2013-05-25 21:36:00,46.8,39.2,29.96,NNW,333,1.0,10.0,75,0.01,,,0.48,0.0,meteohub,2013-05-26 01:36:00,
2013-05-25 21:41:00,46.9,39.0,29.97,NNW,337,2.0,6.0,74,0.01,,,0.48,0.0,meteohub,2013-05-26 01:41:00,
2013-05-25 21:46:00,46.9,39.0,29.96,ENE,63,0.0,6.0,74,0.01,,,0.48,0.0,meteohub,2013-05-26 01:46:00,
2013-05-25 21:51:00,47.1,38.5,29.96,NW,318,1.0,7.0,72,0.01,,,0.48,0.0,meteohub,2013-05-26 01:51:00,
2013-05-25 21:56:00,47.1,38.5,29.96,NE,44,0.0,7.0,72,0.01,,,0.48,0.0,meteohub,2013-05-26 01:56:00,
2013-05-25 22:01:00,47.1,39.2,29.96,West,271,2.0,7.0,74,0.00,,,0.48,0.0,meteohub,2013-05-26 02:01:00,
2013-05-25 22:06:00,46.9,39.0,29.96,NNE,29,2.0,5.0,74,0.00,,,0.48,0.0,meteohub,2013-05-26 02:06:00,
2013-05-25 22:11:00,46.9,40.1,29.97,NNE,30,2.0,5.0,77,0.00,,,0.48,0.0,meteohub,2013-05-26 02:11:00,
2013-05-25 22:22:00,47.1,38.1,29.95,SE,143,0.0,7.0,71,0.00,,,0.48,0.0,meteohub,2013-05-26 02:22:00,
2013-05-25 22:30:00,47.1,39.2,29.96,WNW,292,0.0,7.0,74,0.00,,,0.48,0.0,meteohub,2013-05-26 02:30:00,
2013-05-25 22:35:00,47.1,39.6,29.95,WSW,247,1.0,9.0,75,0.00,,,0.48,0.0,meteohub,2013-05-26 02:35:00,
2013-05-25 22:40:00,46.9,38.3,29.96,SE,135,0.0,9.0,72,0.00,,,0.48,0.0,meteohub,2013-05-26 02:40:00,
2013-05-25 22:46:00,46.9,38.1,29.96,SW,219,0.0,9.0,71,0.00,,,0.48,0.0,meteohub,2013-05-26 02:46:00,
2013-05-25 22:51:00,47.1,38.8,29.95,NE,55,1.0,7.0,73,0.00,,,0.48,0.0,meteohub,2013-05-26 02:51:00,
2013-05-25 23:02:00,46.9,38.7,29.95,WSW,253,0.0,6.0,73,0.00,,,0.48,0.0,meteohub,2013-05-26 03:02:00,
2013-05-25 23:07:00,46.8,39.6,29.95,ESE,121,0.0,7.0,76,0.00,,,0.48,0.0,meteohub,2013-05-26 03:07:00,
2013-05-25 23:12:00,46.6,39.7,29.94,WNW,296,2.0,7.0,77,0.00,,,0.48,0.0,meteohub,2013-05-26 03:12:00,
2013-05-25 23:17:00,46.6,39.0,29.95,West,273,4.0,14.0,75,0.00,,,0.48,0.0,meteohub,2013-05-26 03:17:00,
2013-05-25 23:22:00,46.9,38.1,29.94,WNW,293,0.0,14.0,71,0.00,,,0.48,0.0,meteohub,2013-05-26 03:22:00,
2013-05-25 23:27:00,47.5,38.5,29.94,WNW,292,0.0,14.0,71,0.00,,,0.48,0.0,meteohub,2013-05-26 03:27:00,
2013-05-25 23:32:00,47.7,37.6,29.94,SSW,199,1.0,8.0,68,0.00,,,0.48,0.0,meteohub,2013-05-26 03:32:00,
2013-05-25 23:37:00,47.8,38.1,29.94,South,175,1.0,12.0,69,0.00,,,0.48,0.0,meteohub,2013-05-26 03:37:00,
2013-05-25 23:42:00,47.7,39.0,29.94,WSW,257,0.0,12.0,72,0.00,,,0.48,0.0,meteohub,2013-05-26 03:42:00,
2013-05-25 23:47:00,47.7,39.0,29.94,NNE,21,4.0,12.0,72,0.00,,,0.48,0.0,meteohub,2013-05-26 03:47:00,
2013-05-25 23:52:00,47.7,38.3,29.94,South,189,0.0,7.0,70,0.00,,,0.48,0.0,meteohub,2013-05-26 03:52:00,
2013-05-25 23:58:00,47.8,39.2,29.94,West,275,0.0,7.0,72,0.00,,,0.48,0.0,meteohub,2013-05-26 03:58:00,